createdAt,value
2022-09-25T00:00:50.983Z,99.99
2022-09-25T00:01:51.424Z,99.99
2022-09-25T00:02:51.349Z,99.99
2022-09-25T00:03:50.975Z,99.99
2022-09-25T00:04:51.203Z,99.99
2022-09-25T00:05:51.209Z,99.99
2022-09-25T00:06:50.915Z,99.99
2022-09-25T00:07:51.157Z,99.99
2022-09-25T00:08:51.145Z,99.99
2022-09-25T00:09:51.311Z,99.99
2022-09-25T00:10:51.298Z,99.99
2022-09-25T00:11:51.288Z,99.99
2022-09-25T00:12:51.278Z,99.99
2022-09-25T00:13:51.265Z,99.99
2022-09-25T00:14:51.254Z,99.99
2022-09-25T00:15:51.242Z,99.99
2022-09-25T00:16:51.363Z,99.99
2022-09-25T00:17:50.959Z,99.99
2022-09-25T00:18:51.225Z,99.99
2022-09-25T00:19:51.249Z,99.99
2022-09-25T00:20:51.200Z,99.99
2022-09-25T00:21:51.266Z,99.99
2022-09-25T00:22:51.176Z,99.99
2022-09-25T00:23:50.896Z,99.99
2022-09-25T00:24:51.136Z,99.99
2022-09-25T00:25:51.117Z,99.99
2022-09-25T00:26:50.866Z,99.99
2022-09-25T00:27:51.097Z,99.99
2022-09-25T00:28:51.094Z,99.99
2022-09-25T00:29:50.821Z,99.99
2022-09-25T00:30:50.967Z,99.99
2022-09-25T00:31:51.062Z,99.99
2022-09-25T00:32:50.816Z,99.99
2022-09-25T00:33:51.032Z,99.99
2022-09-25T00:34:51.027Z,99.99
2022-09-25T00:35:50.783Z,99.99
2022-09-25T00:36:50.743Z,99.99
2022-09-25T00:37:51.006Z,99.99
2022-09-25T00:38:50.977Z,99.99
2022-09-25T00:39:50.699Z,99.99
2022-09-25T00:40:50.837Z,99.99
2022-09-25T00:41:50.933Z,99.99
2022-09-25T00:42:50.671Z,99.99
2022-09-25T00:43:50.911Z,99.99
2022-09-25T00:44:50.646Z,99.99
2022-09-25T00:45:50.980Z,99.99
2022-09-25T00:46:50.877Z,99.99
2022-09-25T00:47:50.865Z,99.99
2022-09-25T00:48:50.855Z,99.99
2022-09-25T00:49:50.587Z,99.99
2022-09-25T00:50:50.833Z,99.99
2022-09-25T00:51:54.896Z,99.99
2022-09-25T00:52:50.809Z,99.99
2022-09-25T00:53:50.818Z,99.99
2022-09-25T00:54:50.528Z,99.99
2022-09-25T00:55:50.772Z,99.99
2022-09-25T00:56:50.509Z,99.99
2022-09-25T00:57:50.751Z,99.99
2022-09-25T00:58:50.740Z,99.99
2022-09-25T00:59:50.734Z,99.99
2022-09-25T01:00:50.515Z,99.99
2022-09-25T01:01:50.580Z,99.99
2022-09-25T01:02:50.545Z,99.99
2022-09-25T01:03:50.681Z,99.99
2022-09-25T01:04:50.728Z,99.99
2022-09-25T01:05:50.663Z,99.99
2022-09-25T01:06:50.652Z,99.99
2022-09-25T01:07:50.405Z,99.99
2022-09-25T01:08:50.626Z,99.99
2022-09-25T01:09:50.643Z,99.99
2022-09-25T01:10:50.345Z,99.99
2022-09-25T01:11:50.593Z,99.99
2022-09-25T01:12:50.577Z,99.99
2022-09-25T01:13:50.312Z,99.99
2022-09-25T01:14:50.300Z,99.99
2022-09-25T01:15:50.285Z,99.99
2022-09-25T01:16:50.339Z,99.99
2022-09-25T01:17:50.524Z,99.99
2022-09-25T01:18:50.253Z,99.99
2022-09-25T01:19:52.867Z,99.99
2022-09-25T01:20:50.483Z,99.99
2022-09-25T01:21:50.479Z,99.99
2022-09-25T01:22:50.217Z,99.99
2022-09-25T01:23:50.219Z,99.99
2022-09-25T01:24:50.182Z,99.99
2022-09-25T01:25:50.456Z,99.99
2022-09-25T01:26:50.414Z,99.99
2022-09-25T01:27:50.402Z,99.99
2022-09-25T01:28:50.139Z,99.99
2022-09-25T01:29:50.131Z,99.99
2022-09-25T01:30:50.458Z,99.99
2022-09-25T01:31:50.102Z,99.99
2022-09-25T01:32:50.092Z,99.99
2022-09-25T01:33:50.084Z,99.99
2022-09-25T01:34:50.327Z,99.99
2022-09-25T01:35:50.055Z,99.99
2022-09-25T01:36:50.299Z,99.99
2022-09-25T01:37:50.921Z,99.99
2022-09-25T01:38:50.909Z,99.99
2022-09-25T01:39:50.925Z,99.99
2022-09-25T01:40:51.034Z,99.99
2022-09-25T01:41:51.158Z,99.99
2022-09-25T01:42:51.114Z,99.99
2022-09-25T01:43:51.108Z,99.99
2022-09-25T01:44:51.094Z,99.99
2022-09-25T01:45:51.188Z,99.99
2022-09-25T01:46:51.065Z,99.99
2022-09-25T01:47:51.059Z,99.99
2022-09-25T01:48:50.819Z,99.99
2022-09-25T01:49:50.779Z,99.99
2022-09-25T01:50:51.025Z,99.99
2022-09-25T01:51:51.010Z,99.99
2022-09-25T01:52:50.995Z,99.99
2022-09-25T01:53:50.726Z,99.99
2022-09-25T01:54:50.985Z,99.99
2022-09-25T01:55:50.733Z,99.99
2022-09-25T01:56:50.688Z,99.99
2022-09-25T01:57:50.959Z,99.99
2022-09-25T01:58:50.669Z,99.99
2022-09-25T01:59:51.597Z,99.99
2022-09-25T02:00:51.574Z,99.99
2022-09-25T02:01:51.474Z,99.99
2022-09-25T02:02:51.633Z,99.99
2022-09-25T02:03:51.284Z,99.99
2022-09-25T02:04:51.527Z,99.99
2022-09-25T02:05:51.516Z,99.99
2022-09-25T02:06:51.514Z,99.99
2022-09-25T02:07:51.238Z,99.99
2022-09-25T02:08:51.218Z,99.99
2022-09-25T02:09:51.462Z,99.99
2022-09-25T02:10:51.456Z,99.99
2022-09-25T02:11:51.209Z,99.99
2022-09-25T02:12:51.437Z,99.99
2022-09-25T02:13:51.438Z,99.99
2022-09-25T02:14:51.405Z,99.99
2022-09-25T02:15:51.389Z,99.99
2022-09-25T02:16:51.524Z,99.99
2022-09-25T02:17:51.367Z,99.99
2022-09-25T02:18:51.359Z,99.99
2022-09-25T02:19:51.081Z,99.99
2022-09-25T02:20:51.076Z,99.99
2022-09-25T02:21:51.319Z,99.99
2022-09-25T02:22:51.315Z,99.99
2022-09-25T02:23:51.038Z,99.99
2022-09-25T02:24:54.156Z,99.99
2022-09-25T02:25:51.010Z,99.99
2022-09-25T02:26:51.002Z,99.99
2022-09-25T02:27:51.265Z,99.99
2022-09-25T02:28:51.229Z,99.99
2022-09-25T02:29:51.237Z,99.99
2022-09-25T02:30:51.360Z,99.99
2022-09-25T02:31:51.196Z,99.99
2022-09-25T02:32:50.927Z,99.99
2022-09-25T02:33:51.164Z,99.99
2022-09-25T02:34:51.156Z,99.99
2022-09-25T02:35:50.889Z,99.99
2022-09-25T02:36:51.134Z,99.99
2022-09-25T02:37:50.860Z,99.99
2022-09-25T02:38:50.852Z,99.99
2022-09-25T02:39:50.838Z,99.99
2022-09-25T02:40:51.278Z,99.99
2022-09-25T02:41:51.068Z,99.99
2022-09-25T02:42:51.066Z,99.99
2022-09-25T02:43:50.812Z,99.99
2022-09-25T02:44:51.030Z,99.99
2022-09-25T02:45:51.236Z,99.99
2022-09-25T02:46:50.748Z,99.99
2022-09-25T02:47:50.736Z,99.99
2022-09-25T02:48:50.982Z,99.99
2022-09-25T02:49:50.718Z,99.99
2022-09-25T02:50:50.853Z,99.99
2022-09-25T02:51:50.936Z,99.99
2022-09-25T02:52:50.930Z,99.99
2022-09-25T02:53:50.920Z,99.99
2022-09-25T02:54:50.906Z,99.99
2022-09-25T02:55:50.634Z,99.99
2022-09-25T02:56:50.883Z,99.99
2022-09-25T02:57:50.866Z,99.99
2022-09-25T02:58:50.596Z,99.99
2022-09-25T02:59:50.864Z,99.99
2022-09-25T03:00:50.902Z,99.99
2022-09-25T03:01:51.003Z,99.99
2022-09-25T03:02:54.756Z,99.99
2022-09-25T03:03:50.533Z,99.99
2022-09-25T03:04:50.778Z,99.99
2022-09-25T03:05:50.918Z,99.99
2022-09-25T03:06:50.757Z,99.99
2022-09-25T03:07:50.739Z,99.99
2022-09-25T03:08:50.725Z,99.99
2022-09-25T03:09:50.458Z,99.99
2022-09-25T03:10:50.442Z,99.99
2022-09-25T03:11:50.689Z,99.99
2022-09-25T03:12:50.674Z,99.99
2022-09-25T03:13:50.403Z,99.99
2022-09-25T03:14:50.390Z,99.99
2022-09-25T03:15:50.695Z,99.99
2022-09-25T03:16:50.705Z,99.99
2022-09-25T03:17:50.649Z,99.99
2022-09-25T03:18:50.600Z,99.99
2022-09-25T03:19:50.584Z,99.93
2022-09-25T03:20:50.570Z,99.99
2022-09-25T03:21:50.559Z,99.84
2022-09-25T03:22:50.290Z,99.93
2022-09-25T03:23:50.539Z,99.64
2022-09-25T03:24:50.265Z,99.64
2022-09-25T03:25:52.894Z,99.16
2022-09-25T03:26:50.239Z,98.88
2022-09-25T03:27:50.226Z,98.69
2022-09-25T03:28:50.493Z,98.5
2022-09-25T03:29:50.454Z,98.41
2022-09-25T03:30:50.538Z,98.31
2022-09-25T03:31:50.210Z,97.79
2022-09-25T03:32:50.414Z,98.08
2022-09-25T03:50:04.671Z,98.93
2022-09-25T03:51:04.263Z,98.93
2022-09-25T03:52:04.599Z,98.93
2022-09-25T03:53:04.594Z,98.93
2022-09-25T03:54:04.598Z,98.55
2022-09-25T03:55:04.556Z,98.83
2022-09-25T03:56:04.288Z,98.65
2022-09-25T03:57:04.528Z,98.74
2022-09-25T03:58:04.264Z,99.12
2022-09-25T03:59:04.243Z,98.93
2022-09-25T04:00:04.236Z,98.97
2022-09-25T04:01:04.671Z,99.26
2022-09-25T04:02:04.590Z,99.36
2022-09-25T04:03:04.443Z,99.36
2022-09-25T04:04:04.517Z,99.31
2022-09-25T04:05:04.448Z,99.36
2022-09-25T04:06:04.455Z,99.55
2022-09-25T04:07:04.131Z,99.26
2022-09-25T04:08:04.376Z,99.45
2022-09-25T04:09:04.105Z,99.55
2022-09-25T04:10:04.349Z,99.26
2022-09-25T04:11:04.081Z,99.16
2022-09-25T04:12:04.324Z,99.74
2022-09-25T04:13:04.310Z,99.84
2022-09-25T04:14:04.132Z,99.99
2022-09-25T04:15:04.279Z,99.99
2022-09-25T04:16:04.267Z,99.99
2022-09-25T04:17:04.255Z,99.99
2022-09-25T04:18:08.154Z,99.84
2022-09-25T04:19:04.246Z,99.99
2022-09-25T04:20:04.219Z,99.99
2022-09-25T04:21:03.942Z,99.55
2022-09-25T04:22:04.239Z,99.64
2022-09-25T04:23:04.184Z,99.64
2022-09-25T04:24:04.060Z,99.36
2022-09-25T04:25:04.148Z,99.4
2022-09-25T04:26:04.133Z,99.5
2022-09-25T04:27:04.135Z,99.4
2022-09-25T04:28:03.852Z,99.4
2022-09-25T04:29:04.166Z,98.55
2022-09-25T04:30:04.089Z,98.64
2022-09-25T04:31:04.325Z,98.26
2022-09-25T04:32:04.121Z,98.55
2022-09-25T04:33:03.786Z,97.88
2022-09-25T04:34:04.059Z,97.88
2022-09-25T04:35:04.017Z,98.07
2022-09-25T04:36:03.742Z,97.78
2022-09-25T04:37:03.990Z,97.88
2022-09-25T04:38:04.024Z,97.5
2022-09-25T04:39:03.705Z,96.93
2022-09-25T04:40:03.956Z,96.93
2022-09-25T04:41:03.970Z,96.55
2022-09-25T04:42:03.934Z,95.79
2022-09-25T04:43:03.662Z,95.32
2022-09-25T04:44:03.970Z,94.93
2022-09-25T04:45:03.887Z,94.37
2022-09-25T04:46:03.796Z,93.99
2022-09-25T04:47:03.850Z,93.51
2022-09-25T04:48:03.843Z,93.23
2022-09-25T04:49:03.573Z,93.51
2022-09-25T04:50:03.575Z,93.51
2022-09-25T04:51:03.804Z,93.99
2022-09-25T04:52:03.536Z,93.6
2022-09-25T04:53:03.518Z,93.99
2022-09-25T04:54:03.821Z,93.32
2022-09-25T04:55:03.745Z,93.32
2022-09-25T04:56:03.734Z,92.46
2022-09-25T04:57:03.718Z,92.08
2022-09-25T04:58:03.704Z,91.8
2022-09-25T04:59:03.434Z,91.13
2022-09-25T05:00:03.684Z,90.47
2022-09-25T05:01:03.784Z,89.9
2022-09-25T05:02:03.790Z,89.52
2022-09-25T05:03:04.018Z,89.71
2022-09-25T05:04:10.253Z,89.23
2022-09-25T05:05:03.615Z,89.42
2022-09-25T05:06:03.355Z,88.85
2022-09-25T05:07:03.329Z,89.04
2022-09-25T05:08:03.582Z,88.76
2022-09-25T05:09:03.556Z,88.28
2022-09-25T05:10:03.596Z,88.67
2022-09-25T05:11:03.277Z,88.38
2022-09-25T05:12:03.518Z,88.47
2022-09-25T05:13:03.512Z,88.47
2022-09-25T05:14:03.550Z,88.47
2022-09-25T05:15:03.511Z,88.47
2022-09-25T05:16:03.398Z,88.47
2022-09-25T05:17:03.449Z,87.71
2022-09-25T05:18:03.185Z,87.9
2022-09-25T05:19:03.173Z,87.52
2022-09-25T05:20:03.154Z,87.52
2022-09-25T05:21:03.399Z,87.43
2022-09-25T05:22:03.384Z,87.43
2022-09-25T05:23:03.113Z,87.43
2022-09-25T05:24:03.389Z,87.43
2022-09-25T05:25:03.186Z,87.71
2022-09-25T05:26:03.392Z,87.43
2022-09-25T05:27:03.315Z,87.05
2022-09-25T05:28:03.322Z,86.57
2022-09-25T05:29:03.292Z,86.29
2022-09-25T05:30:03.026Z,85.91
2022-09-25T05:31:03.189Z,85.24
2022-09-25T05:32:03.257Z,85.05
2022-09-25T05:33:02.979Z,84.58
2022-09-25T05:34:03.045Z,84.14
2022-09-25T05:35:02.957Z,83.82
2022-09-25T05:36:03.199Z,83.67
2022-09-25T05:37:02.928Z,82.91
2022-09-25T05:38:03.172Z,82.71
2022-09-25T05:39:03.158Z,82.15
2022-09-25T05:40:02.893Z,82.15
2022-09-25T05:41:02.966Z,81.58
2022-09-25T05:42:03.170Z,81.48
2022-09-25T05:43:02.853Z,81.29
2022-09-25T05:44:03.114Z,80.91
2022-09-25T05:45:09.630Z,81.1
2022-09-25T05:46:03.211Z,81.29
2022-09-25T05:47:03.054Z,80.82
2022-09-25T05:48:03.050Z,81.29
2022-09-25T05:49:02.771Z,81.1
2022-09-25T05:50:03.018Z,81.05
2022-09-25T05:51:02.758Z,81.05
2022-09-25T05:52:02.989Z,80.95
2022-09-25T05:53:02.729Z,80.95
2022-09-25T05:54:02.964Z,80.95
2022-09-25T05:55:02.961Z,80.95
2022-09-25T05:56:02.677Z,81.24
2022-09-25T05:57:02.669Z,81.14
2022-09-25T05:58:02.965Z,81.05
2022-09-25T05:59:02.642Z,80.95
2022-09-25T06:00:02.627Z,80.66
2022-09-25T06:01:02.875Z,80.47
2022-09-25T06:02:02.981Z,80.76
2022-09-25T06:03:03.082Z,80.47
2022-09-25T06:04:02.586Z,80.29
2022-09-25T06:05:02.581Z,79.81
2022-09-25T06:06:02.808Z,79.81
2022-09-25T06:07:02.796Z,80
2022-09-25T06:08:02.783Z,79.94
2022-09-25T06:09:02.773Z,79.57
2022-09-25T06:10:02.770Z,79.09
2022-09-25T06:11:02.761Z,79.19
2022-09-25T06:12:02.734Z,78.8
2022-09-25T06:13:02.723Z,78.42
2022-09-25T06:14:02.761Z,78.61
2022-09-25T06:15:02.463Z,78.33
2022-09-25T06:16:02.587Z,78.33
2022-09-25T06:17:02.674Z,77.76
2022-09-25T06:18:02.658Z,77.95
2022-09-25T06:19:02.392Z,77.76
2022-09-25T06:20:02.404Z,77.47
2022-09-25T06:21:02.627Z,77.22
2022-09-25T06:22:02.357Z,77.8
2022-09-25T06:23:02.351Z,76.94
2022-09-25T06:24:02.332Z,77.22
2022-09-25T06:25:02.329Z,77.32
2022-09-25T06:26:02.316Z,77.13
2022-09-25T06:27:02.551Z,76.46
2022-09-25T06:28:02.286Z,76.37
2022-09-25T06:29:05.813Z,76.46
2022-09-25T06:30:02.542Z,76.27
2022-09-25T06:31:02.505Z,76.31
2022-09-25T06:32:02.243Z,75.74
2022-09-25T06:33:02.484Z,76.4
2022-09-25T06:34:02.219Z,76.98
2022-09-25T06:35:02.455Z,76.98
2022-09-25T06:36:02.446Z,77.74
2022-09-25T06:37:02.176Z,78.59
2022-09-25T06:38:02.431Z,78.41
2022-09-25T06:39:02.420Z,78.5
2022-09-25T06:40:02.405Z,78.88
2022-09-25T06:41:03.009Z,79.4
2022-09-25T06:42:02.120Z,79.49
2022-09-25T06:43:02.365Z,79.78
2022-09-25T06:44:02.102Z,79.88
2022-09-25T06:45:02.111Z,80.64
2022-09-25T06:46:02.966Z,81.3
2022-09-25T06:47:02.773Z,81.88
2022-09-25T06:48:02.511Z,82.35
2022-09-25T06:49:02.494Z,82.17
2022-09-25T06:50:02.485Z,82.83
2022-09-25T06:51:02.728Z,83.31
2022-09-25T06:52:02.459Z,83.5
2022-09-25T06:53:02.706Z,83.69
2022-09-25T06:54:02.702Z,83.69
2022-09-25T06:55:02.684Z,83.59
2022-09-25T06:56:02.801Z,84.01
2022-09-25T06:57:02.660Z,84.4
2022-09-25T06:58:02.398Z,84.69
2022-09-25T06:59:02.392Z,84.78
2022-09-25T07:00:02.649Z,85.83
2022-09-25T07:01:06.370Z,86.3
2022-09-25T07:02:03.056Z,86.69
2022-09-25T07:03:02.590Z,86.88
2022-09-25T07:04:02.332Z,87.26
2022-09-25T07:05:02.584Z,88.02
2022-09-25T07:06:02.571Z,88.21
2022-09-25T07:07:02.296Z,88.78
2022-09-25T07:08:02.551Z,89.02
2022-09-25T07:09:02.570Z,89.78
2022-09-25T07:10:02.369Z,89.88
2022-09-25T07:11:02.259Z,90.55
2022-09-25T07:12:02.504Z,90.07
2022-09-25T07:13:02.499Z,90.07
2022-09-25T07:14:02.490Z,90.83
2022-09-25T07:15:02.474Z,91.02
2022-09-25T07:16:02.701Z,91.02
2022-09-25T07:17:02.305Z,91.88
2022-09-25T07:18:02.464Z,92.55
2022-09-25T07:19:02.435Z,94.12
2022-09-25T07:20:02.425Z,95.36
2022-09-25T07:21:02.425Z,96.22
2022-09-25T07:22:02.148Z,97.08
2022-09-25T07:23:02.393Z,97.37
2022-09-25T07:24:02.126Z,98.42
2022-09-25T07:25:02.382Z,98.8
2022-09-25T07:26:02.105Z,99.95
2022-09-25T07:27:02.096Z,99.99
2022-09-25T07:28:02.343Z,99.99
2022-09-25T07:29:02.077Z,99.99
2022-09-25T07:30:02.712Z,99.99
2022-09-25T07:31:02.841Z,99.99
2022-09-25T07:32:02.963Z,99.99
2022-09-25T07:33:02.960Z,99.99
2022-09-25T07:34:03.004Z,99.99
2022-09-25T07:35:02.672Z,99.99
2022-09-25T07:36:02.905Z,99.99
2022-09-25T07:37:02.641Z,99.99
2022-09-25T07:38:02.884Z,99.99
2022-09-25T07:39:02.623Z,99.99
2022-09-25T07:40:02.868Z,99.99
2022-09-25T07:41:02.602Z,99.99
2022-09-25T07:42:02.847Z,99.99
2022-09-25T07:43:02.836Z,99.99
2022-09-25T07:44:37.798Z,99.99
2022-09-25T07:45:02.567Z,99.99
2022-09-25T07:46:02.998Z,99.99
2022-09-25T07:47:02.552Z,99.99
2022-09-25T07:48:02.787Z,99.99
2022-09-25T07:49:02.804Z,99.99
2022-09-25T07:50:02.805Z,99.99
2022-09-25T07:51:02.764Z,99.99
2022-09-25T07:52:02.492Z,99.99
2022-09-25T07:53:02.488Z,99.99
2022-09-25T07:54:02.729Z,99.99
2022-09-25T07:55:02.723Z,99.99
2022-09-25T07:56:07.978Z,99.99
2022-09-25T07:57:02.705Z,99.99
2022-09-25T07:58:02.439Z,99.99
2022-09-25T07:59:02.689Z,99.99
2022-09-25T08:00:02.424Z,99.99
2022-09-25T08:01:02.904Z,99.99
2022-09-25T08:02:02.722Z,99.99
2022-09-25T08:03:02.571Z,99.99
2022-09-25T08:04:02.385Z,99.99
2022-09-25T08:05:02.425Z,99.99
2022-09-25T08:06:02.650Z,99.99
2022-09-25T08:07:02.353Z,99.99
2022-09-25T08:08:02.599Z,99.99
2022-09-25T08:09:05.652Z,99.99
2022-09-25T08:10:02.590Z,99.99
2022-09-25T08:11:02.582Z,99.99
2022-09-25T08:12:02.563Z,99.99
2022-09-25T08:13:02.297Z,99.99
2022-09-25T08:14:02.291Z,99.99
2022-09-25T08:15:02.553Z,99.99
2022-09-25T08:16:02.699Z,99.99
2022-09-25T08:17:02.515Z,99.99
2022-09-25T08:18:02.253Z,99.99
2022-09-25T08:19:02.246Z,99.99
2022-09-25T08:20:02.515Z,99.99
2022-09-25T08:21:02.502Z,99.99
2022-09-25T08:22:02.496Z,99.99
2022-09-25T08:23:02.461Z,99.99
2022-09-25T08:24:02.452Z,99.99
2022-09-25T08:25:02.438Z,99.99
2022-09-25T08:26:02.178Z,99.99
2022-09-25T08:27:02.426Z,99.99
2022-09-25T08:28:02.421Z,99.99
2022-09-25T08:29:02.409Z,99.99
2022-09-25T08:30:02.399Z,99.99
2022-09-25T08:31:02.509Z,99.99
2022-09-25T08:32:02.118Z,99.99
2022-09-25T08:33:02.367Z,99.99
2022-09-25T08:35:02.507Z,99.99
2022-09-25T08:36:03.430Z,99.99
2022-09-25T08:37:03.440Z,99.99
2022-09-25T08:38:03.688Z,99.99
2022-09-25T08:39:03.650Z,99.99
2022-09-25T08:40:03.650Z,99.99
2022-09-25T08:41:03.766Z,99.99
2022-09-25T08:42:03.380Z,99.99
2022-09-25T08:43:03.366Z,99.99
2022-09-25T08:44:03.372Z,99.99
2022-09-25T08:45:22.770Z,99.99
2022-09-25T08:46:03.772Z,99.99
2022-09-25T08:47:03.580Z,99.99
2022-09-25T08:48:03.574Z,99.99
2022-09-25T08:49:03.320Z,99.99
2022-09-25T08:50:03.304Z,99.99
2022-09-25T08:51:03.548Z,99.99
2022-09-25T08:52:03.546Z,99.99
2022-09-25T08:53:03.553Z,99.99
2022-09-25T08:54:03.611Z,99.99
2022-09-25T08:55:03.259Z,99.99
2022-09-25T08:56:03.518Z,99.99
2022-09-25T08:57:03.498Z,99.99
2022-09-25T08:58:03.487Z,99.99
2022-09-25T08:59:03.226Z,99.99
2022-09-25T09:00:04.999Z,99.99
2022-09-25T09:01:03.629Z,99.99
2022-09-25T09:02:03.449Z,99.99
2022-09-25T09:03:03.236Z,99.99
2022-09-25T09:04:03.478Z,99.99
2022-09-25T09:05:03.431Z,99.99
2022-09-25T09:06:03.164Z,99.99
2022-09-25T09:07:28.343Z,99.99
2022-09-25T09:08:03.155Z,99.99
2022-09-25T09:09:03.161Z,99.99
2022-09-25T09:10:03.406Z,99.99
2022-09-25T09:11:03.118Z,99.99
2022-09-25T09:12:03.367Z,99.99
2022-09-25T09:13:03.114Z,99.99
2022-09-25T09:14:03.503Z,99.99
2022-09-25T09:15:03.086Z,99.99
2022-09-25T09:16:03.454Z,99.99
2022-09-25T09:17:03.327Z,99.99
2022-09-25T09:18:03.312Z,99.99
2022-09-25T09:19:03.311Z,99.99
2022-09-25T09:20:03.041Z,99.99
2022-09-25T09:21:03.293Z,99.99
2022-09-25T09:22:03.280Z,99.99
2022-09-25T09:23:03.272Z,99.99
2022-09-25T09:24:03.030Z,99.99
2022-09-25T09:25:03.278Z,99.99
2022-09-25T09:26:03.272Z,99.99
2022-09-25T09:27:03.239Z,99.99
2022-09-25T09:28:03.229Z,99.99
2022-09-25T09:29:03.224Z,99.99
2022-09-25T09:30:08.058Z,99.99
2022-09-25T09:31:03.085Z,99.99
2022-09-25T09:32:03.196Z,99.99
2022-09-25T09:33:02.936Z,99.99
2022-09-25T09:34:03.285Z,99.99
2022-09-25T09:35:09.139Z,99.99
2022-09-25T09:36:03.170Z,99.99
2022-09-25T09:37:03.153Z,99.99
2022-09-25T09:38:02.891Z,99.99
2022-09-25T09:39:03.140Z,99.99
2022-09-25T09:40:03.125Z,99.99
2022-09-25T09:41:02.885Z,99.99
2022-09-25T09:42:03.223Z,99.99
2022-09-25T09:43:03.102Z,99.99
2022-09-25T09:44:02.836Z,99.99
2022-09-25T09:45:03.094Z,99.99
2022-09-25T09:46:03.278Z,99.99
2022-09-25T09:47:03.077Z,99.99
2022-09-25T09:48:03.057Z,99.99
2022-09-25T09:49:02.794Z,99.99
2022-09-25T09:50:03.043Z,99.99
2022-09-25T09:51:02.795Z,99.99
2022-09-25T09:52:02.771Z,99.99
2022-09-25T09:53:03.013Z,99.99
2022-09-25T09:54:02.751Z,99.99
2022-09-25T09:55:02.745Z,99.99
2022-09-25T09:56:02.762Z,99.99
2022-09-25T09:57:03.011Z,99.99
2022-09-25T09:58:02.999Z,99.99
2022-09-25T09:59:02.962Z,99.99
2022-09-25T10:00:07.455Z,99.99
2022-09-25T10:02:04.764Z,99.99
2022-09-25T10:03:04.544Z,99.99
2022-09-25T10:04:04.620Z,99.99
2022-09-25T10:05:04.508Z,99.99
2022-09-25T10:06:04.504Z,99.99
2022-09-25T10:07:04.231Z,99.99
2022-09-25T10:08:04.485Z,99.15
2022-09-25T10:09:04.466Z,98.57
2022-09-25T10:10:04.207Z,97.66
2022-09-25T10:11:04.198Z,96.18
2022-09-25T10:12:04.468Z,95.89
2022-09-25T10:13:08.567Z,96.27
2022-09-25T10:14:04.523Z,96.18
2022-09-25T10:15:04.170Z,97.04
2022-09-25T10:16:04.275Z,96.94
2022-09-25T10:17:04.151Z,96.27
2022-09-25T10:18:04.154Z,95.7
2022-09-25T10:19:04.398Z,94.93
2022-09-25T10:20:04.387Z,94.36
2022-09-25T10:21:04.377Z,94.74
2022-09-25T10:22:04.115Z,95.41
2022-09-25T10:23:04.361Z,94.55
2022-09-25T10:24:04.465Z,94.36
2022-09-25T10:25:04.513Z,93.98
2022-09-25T10:26:07.215Z,93.69
2022-09-25T10:27:04.120Z,93.59
2022-09-25T10:28:04.383Z,93.59
2022-09-25T10:29:04.381Z,92.73
2022-09-25T10:30:04.382Z,94.36
2022-09-25T10:31:04.475Z,96.22
2022-09-25T10:32:04.083Z,97.75
2022-09-25T10:33:04.401Z,99.29
2022-09-25T10:34:04.106Z,99.99
2022-09-25T10:35:04.059Z,99.99
2022-09-25T10:36:04.309Z,99.99
2022-09-25T10:37:04.298Z,99.96
2022-09-25T10:38:04.293Z,99.99
2022-09-25T10:39:49.465Z,99.99
2022-09-25T10:40:04.271Z,99.99
2022-09-25T10:41:04.016Z,99.99
2022-09-25T10:42:04.006Z,99.57
2022-09-25T10:43:04.255Z,98.61
2022-09-25T10:44:04.298Z,98.61
2022-09-25T10:45:04.266Z,99.48
2022-09-25T10:46:04.378Z,99.29
2022-09-25T10:47:04.234Z,99.57
2022-09-25T10:48:04.215Z,99.96
2022-09-25T10:49:04.210Z,99.99
2022-09-25T10:50:04.210Z,99.99
2022-09-25T10:51:04.208Z,99.99
2022-09-25T10:52:04.185Z,99.99
2022-09-25T10:53:04.177Z,99.99
2022-09-25T10:54:04.164Z,99.99
2022-09-25T10:55:04.165Z,99.96
2022-09-25T10:56:03.905Z,99.99
2022-09-25T10:57:03.898Z,99.99
2022-09-25T10:58:03.878Z,99.99
2022-09-25T10:59:03.982Z,99.15
2022-09-25T11:00:03.870Z,98.47
2022-09-25T11:01:04.335Z,97.71
2022-09-25T11:02:04.395Z,96.75
2022-09-25T11:03:04.099Z,96.51
2022-09-25T11:04:04.090Z,95.65
2022-09-25T11:05:03.829Z,93.93
2022-09-25T11:06:04.080Z,92.78
2022-09-25T11:07:03.816Z,92.78
2022-09-25T11:08:03.807Z,92.21
2022-09-25T11:09:03.844Z,91.05
2022-09-25T11:10:04.087Z,90.96
2022-09-25T11:11:04.061Z,91.34
2022-09-25T11:12:04.033Z,90.77
2022-09-25T11:13:04.029Z,90.09
2022-09-25T11:14:03.759Z,89.52
2022-09-25T11:15:03.763Z,88.23
2022-09-25T11:16:03.999Z,88.23
2022-09-25T11:17:04.403Z,87.55
2022-09-25T11:18:04.105Z,87.27
2022-09-25T11:19:14.752Z,87.17
2022-09-25T11:20:03.981Z,87.27
2022-09-25T11:21:03.967Z,86.98
2022-09-25T11:22:03.967Z,85.45
2022-09-25T11:23:03.703Z,85.54
2022-09-25T11:24:04.016Z,86.5
2022-09-25T11:25:04.291Z,86.31
2022-09-25T11:26:03.955Z,86.5
2022-09-25T11:27:03.936Z,86.5
2022-09-25T11:28:03.921Z,86.5
2022-09-25T11:29:03.928Z,86.69
2022-09-25T11:30:03.683Z,86.45
2022-09-25T11:31:04.065Z,85.88
2022-09-25T11:32:03.638Z,85.01
2022-09-25T11:33:03.663Z,83.86
2022-09-25T11:34:03.914Z,83.38
2022-09-25T11:35:03.890Z,82.71
2022-09-25T11:36:03.610Z,82.04
2022-09-25T11:37:03.617Z,82.14
2022-09-25T11:38:04.846Z,82.32
2022-09-25T11:39:03.611Z,83.19
2022-09-25T11:40:03.648Z,83.29
2022-09-25T11:41:03.833Z,83.67
2022-09-25T11:42:03.829Z,83.09
2022-09-25T11:43:03.820Z,82.46
2022-09-25T11:44:03.815Z,82.46
2022-09-25T11:45:03.571Z,81.79
2022-09-25T11:46:03.929Z,81.6
2022-09-25T11:47:03.541Z,81.37
2022-09-25T11:48:03.788Z,81.46
2022-09-25T11:49:06.328Z,81.08
2022-09-25T11:50:03.800Z,80.79
2022-09-25T11:51:04.386Z,80.03
2022-09-25T11:52:04.094Z,79.83
2022-09-25T11:53:04.082Z,79.45
2022-09-25T11:54:35.091Z,79.55
2022-09-25T11:55:04.070Z,80.03
2022-09-25T11:56:04.327Z,79.16
2022-09-25T11:57:04.325Z,79.16
2022-09-25T11:58:04.054Z,78.92
2022-09-25T11:59:04.303Z,79.39
2022-09-25T12:00:04.307Z,79.11
2022-09-25T12:01:04.191Z,79.49
2022-09-25T12:02:04.045Z,78.53
2022-09-25T12:03:04.278Z,78.44
2022-09-25T12:04:04.111Z,78.44
2022-09-25T12:05:04.292Z,78.63
2022-09-25T12:06:04.380Z,78.44
2022-09-25T12:07:03.997Z,77.58
2022-09-25T12:08:04.256Z,76.81
2022-09-25T12:09:04.243Z,76.23
2022-09-25T12:10:04.256Z,75.75
2022-09-25T12:11:04.240Z,75.37
2022-09-25T12:12:04.233Z,75.75
2022-09-25T12:13:04.218Z,75.75
2022-09-25T12:14:04.018Z,76.62
2022-09-25T12:15:03.961Z,76.42
2022-09-25T12:16:04.461Z,76.23
2022-09-25T12:17:04.194Z,75.37
2022-09-25T12:18:04.193Z,74.69
2022-09-25T12:19:03.933Z,74.51
2022-09-25T12:20:03.942Z,74.51
2022-09-25T12:21:04.030Z,74.02
2022-09-25T12:22:04.190Z,74.79
2022-09-25T12:23:04.173Z,74.41
2022-09-25T12:24:03.963Z,74.6
2022-09-25T12:25:04.156Z,74.51
2022-09-25T12:26:03.898Z,74.98
2022-09-25T12:27:03.883Z,74.89
2022-09-25T12:28:04.139Z,75.46
2022-09-25T12:29:04.127Z,76.71
2022-09-25T12:30:04.125Z,77.19
2022-09-25T12:31:08.050Z,77.09
2022-09-25T12:32:04.108Z,77.48
2022-09-25T12:33:03.859Z,77.86
2022-09-25T12:34:04.136Z,78.05
2022-09-25T12:35:04.095Z,78.15
2022-09-25T12:36:03.833Z,78.05
2022-09-25T12:37:04.221Z,78.15
2022-09-25T12:38:04.103Z,77.86
2022-09-25T12:39:03.817Z,78.15
2022-09-25T12:40:04.065Z,77.58
2022-09-25T12:41:03.804Z,77.58
2022-09-25T12:42:04.049Z,77.67
2022-09-25T12:43:03.793Z,77.76
2022-09-25T12:44:03.801Z,77.48
2022-09-25T12:45:04.040Z,77.67
2022-09-25T12:46:03.900Z,78.05
2022-09-25T12:47:04.025Z,77.58
2022-09-25T12:48:04.017Z,77.38
2022-09-25T12:49:03.756Z,77.48
2022-09-25T12:50:03.749Z,77.67
2022-09-25T12:51:07.713Z,77.8
2022-09-25T12:52:03.993Z,76.75
2022-09-25T12:53:04.016Z,77.33
2022-09-25T12:54:04.076Z,77.61
2022-09-25T12:55:03.724Z,77.8
2022-09-25T12:56:03.979Z,77.23
2022-09-25T12:57:05.008Z,76.46
2022-09-25T12:58:04.736Z,76.37
2022-09-25T12:59:04.730Z,76.37
2022-09-25T13:00:04.980Z,76.37
2022-09-25T13:01:04.808Z,76.75
2022-09-25T13:02:05.154Z,76.65
2022-09-25T13:03:04.965Z,76.65
2022-09-25T13:04:05.159Z,76.84
2022-09-25T13:05:04.703Z,76.27
2022-09-25T13:06:04.947Z,76.56
2022-09-25T13:07:04.955Z,77.04
2022-09-25T13:08:04.936Z,75.31
2022-09-25T13:09:04.701Z,75.02
2022-09-25T13:10:04.954Z,75.54
2022-09-25T13:11:04.921Z,75.63
2022-09-25T13:12:04.910Z,75.06